Main page
METAR-TAF:

METAR-TAF

Airports :

Río Amazonas Airport

Shell Mera, Ecuador

latitude: 01-30-19S, longitude: 078-03-46W, elevation: 1056 m

Current weather observation

The report was made 11 hours and 2 minutes ago, at 23:00 UTC
Wind 5 kt from the North
Temperature 25°C
Humidity 69%
Pressure 1014 hPa
Visibility 10 km or more
Scattered clouds at a height of 3000 ft
Scattered clouds at a height of 10000 ft

METAR: SESM 172300Z 35005KT 9999 SCT030 SCT100 25/19 Q1014 RMK A2997

Time: 05:02 (10:02 UTC)


TAF: missing

Weather observations and forecasts of more than 4000 airports (METAR and TAF reports).

The available stations are represented by yellow and red dots on the map.

Hover mouse over dot to see the name of the station.

Then click to see weather observations and forecasts.

To change the map : click on the green buttons with a black cross to zoom in, on the green button with a dash to zoom out, or on the green arrows for adjacent maps.


METAR-TAF: